sensor_id;sensor_type;location;lat;lon;timestamp;pressure;altitude;pressure_sealevel;temperature;humidity
10460;BME280;54412;51.206;6.888;2023-03-19T00:00:16;100443.19;;;13.52;63.88
10460;BME280;54412;51.206;6.888;2023-03-19T00:02:43;100439.31;;;13.44;64.00
10460;BME280;54412;51.206;6.888;2023-03-19T00:05:14;100446.50;;;13.42;63.84
10460;BME280;54412;51.206;6.888;2023-03-19T00:07:40;100438.88;;;13.37;64.24
10460;BME280;54412;51.206;6.888;2023-03-19T00:10:05;100452.28;;;13.48;63.63
10460;BME280;54412;51.206;6.888;2023-03-19T00:12:31;100452.94;;;13.52;63.22
10460;BME280;54412;51.206;6.888;2023-03-19T00:14:57;100447.84;;;13.49;63.44
10460;BME280;54412;51.206;6.888;2023-03-19T00:17:23;100457.63;;;13.34;64.54
10460;BME280;54412;51.206;6.888;2023-03-19T00:19:48;100444.66;;;13.30;64.91
10460;BME280;54412;51.206;6.888;2023-03-19T00:22:14;100444.47;;;13.19;65.17
10460;BME280;54412;51.206;6.888;2023-03-19T00:24:39;100441.56;;;13.23;65.38
10460;BME280;54412;51.206;6.888;2023-03-19T00:27:05;100449.19;;;13.28;64.91
10460;BME280;54412;51.206;6.888;2023-03-19T00:29:31;100451.28;;;13.23;64.49
10460;BME280;54412;51.206;6.888;2023-03-19T00:31:56;100448.97;;;13.18;64.45
10460;BME280;54412;51.206;6.888;2023-03-19T00:34:22;100443.47;;;13.07;64.85
10460;BME280;54412;51.206;6.888;2023-03-19T00:36:48;100440.28;;;13.02;65.08
10460;BME280;54412;51.206;6.888;2023-03-19T00:39:14;100446.78;;;12.97;65.72
10460;BME280;54412;51.206;6.888;2023-03-19T00:41:39;100454.63;;;12.84;65.84
10460;BME280;54412;51.206;6.888;2023-03-19T00:44:05;100450.47;;;12.80;66.10
10460;BME280;54412;51.206;6.888;2023-03-19T00:46:31;100450.25;;;12.83;65.80
10460;BME280;54412;51.206;6.888;2023-03-19T00:48:57;100451.47;;;12.92;65.72
10460;BME280;54412;51.206;6.888;2023-03-19T00:51:24;100445.63;;;12.73;66.16
10460;BME280;54412;51.206;6.888;2023-03-19T00:53:51;100451.69;;;12.75;65.89
10460;BME280;54412;51.206;6.888;2023-03-19T00:56:18;100449.16;;;12.59;66.41
10460;BME280;54412;51.206;6.888;2023-03-19T00:58:44;100446.41;;;12.60;66.42
10460;BME280;54412;51.206;6.888;2023-03-19T01:01:14;100452.72;;;12.58;66.54
10460;BME280;54412;51.206;6.888;2023-03-19T01:03:40;100447.63;;;12.69;66.14
10460;BME280;54412;51.206;6.888;2023-03-19T01:06:06;100448.84;;;12.63;66.41
10460;BME280;54412;51.206;6.888;2023-03-19T01:08:32;100451.41;;;12.65;66.33
10460;BME280;54412;51.206;6.888;2023-03-19T01:11:10;100446.13;;;12.93;65.40
10460;BME280;54412;51.206;6.888;2023-03-19T01:13:39;100450.47;;;12.80;65.29
10460;BME280;54412;51.206;6.888;2023-03-19T01:16:05;100448.72;;;12.37;67.10
10460;BME280;54412;51.206;6.888;2023-03-19T01:18:31;100452.97;;;12.39;67.53
10460;BME280;54412;51.206;6.888;2023-03-19T01:20:57;100452.25;;;12.51;66.74
10460;BME280;54412;51.206;6.888;2023-03-19T01:23:23;100453.47;;;12.74;66.05
10460;BME280;54412;51.206;6.888;2023-03-19T01:25:48;100449.69;;;12.50;66.82
10460;BME280;54412;51.206;6.888;2023-03-19T01:28:14;100455.81;;;12.50;67.00
10460;BME280;54412;51.206;6.888;2023-03-19T01:30:40;100448.28;;;12.44;67.05
10460;BME280;54412;51.206;6.888;2023-03-19T01:33:06;100450.50;;;12.36;67.71
10460;BME280;54412;51.206;6.888;2023-03-19T01:35:32;100434.09;;;12.45;67.00
10460;BME280;54412;51.206;6.888;2023-03-19T01:37:58;100433.31;;;12.43;66.94
10460;BME280;54412;51.206;6.888;2023-03-19T01:40:23;100429.56;;;12.47;66.70
10460;BME280;54412;51.206;6.888;2023-03-19T01:43:23;100424.47;;;12.30;66.82
10460;BME280;54412;51.206;6.888;2023-03-19T01:45:53;100422.09;;;12.40;66.65
10460;BME280;54412;51.206;6.888;2023-03-19T01:48:26;100428.31;;;12.25;66.99
10460;BME280;54412;51.206;6.888;2023-03-19T01:50:53;100432.44;;;12.29;67.18
10460;BME280;54412;51.206;6.888;2023-03-19T01:53:29;100432.75;;;12.24;67.04
10460;BME280;54412;51.206;6.888;2023-03-19T01:56:10;100427.38;;;12.26;66.92
10460;BME280;54412;51.206;6.888;2023-03-19T01:58:40;100427.47;;;12.24;66.93
10460;BME280;54412;51.206;6.888;2023-03-19T02:01:08;100429.16;;;12.25;67.19
10460;BME280;54412;51.206;6.888;2023-03-19T02:03:36;100426.91;;;12.33;67.00
10460;BME280;54412;51.206;6.888;2023-03-19T02:06:03;100423.63;;;12.14;67.76
10460;BME280;54412;51.206;6.888;2023-03-19T02:08:31;100424.72;;;12.26;67.56
10460;BME280;54412;51.206;6.888;2023-03-19T02:10:57;100427.25;;;12.13;67.77
10460;BME280;54412;51.206;6.888;2023-03-19T02:13:25;100426.88;;;12.19;67.63
10460;BME280;54412;51.206;6.888;2023-03-19T02:15:53;100425.84;;;12.22;67.51
10460;BME280;54412;51.206;6.888;2023-03-19T02:18:20;100430.84;;;12.12;68.38
10460;BME280;54412;51.206;6.888;2023-03-19T02:21:06;100434.06;;;12.17;67.64
10460;BME280;54412;51.206;6.888;2023-03-19T02:23:49;100428.97;;;12.28;67.44
10460;BME280;54412;51.206;6.888;2023-03-19T02:26:21;100435.28;;;12.26;67.84
10460;BME280;54412;51.206;6.888;2023-03-19T02:28:51;100435.75;;;12.32;67.60
10460;BME280;54412;51.206;6.888;2023-03-19T02:31:17;100425.78;;;12.51;66.46
10460;BME280;54412;51.206;6.888;2023-03-19T02:33:43;100433.63;;;12.53;66.92
10460;BME280;54412;51.206;6.888;2023-03-19T02:36:15;100430.47;;;12.32;67.35
10460;BME280;54412;51.206;6.888;2023-03-19T02:38:45;100428.59;;;12.34;67.91
10460;BME280;54412;51.206;6.888;2023-03-19T02:41:11;100429.16;;;12.39;68.22
10460;BME280;54412;51.206;6.888;2023-03-19T02:43:39;100432.50;;;12.43;67.09
10460;BME280;54412;51.206;6.888;2023-03-19T02:46:11;100430.69;;;12.57;67.02
10460;BME280;54412;51.206;6.888;2023-03-19T02:48:37;100427.88;;;12.60;66.82
10460;BME280;54412;51.206;6.888;2023-03-19T02:51:04;100424.19;;;12.77;65.62
10460;BME280;54412;51.206;6.888;2023-03-19T02:53:30;100426.91;;;12.61;66.35
10460;BME280;54412;51.206;6.888;2023-03-19T02:55:56;100431.28;;;12.63;65.88
10460;BME280;54412;51.206;6.888;2023-03-19T02:58:22;100428.81;;;12.45;67.11
10460;BME280;54412;51.206;6.888;2023-03-19T03:00:48;100435.31;;;12.40;67.57
10460;BME280;54412;51.206;6.888;2023-03-19T03:03:13;100435.81;;;12.60;66.75
10460;BME280;54412;51.206;6.888;2023-03-19T03:05:39;100420.41;;;12.53;66.82
10460;BME280;54412;51.206;6.888;2023-03-19T03:08:05;100435.53;;;12.65;66.38
10460;BME280;54412;51.206;6.888;2023-03-19T03:10:31;100430.06;;;12.68;66.44
10460;BME280;54412;51.206;6.888;2023-03-19T03:12:58;100425.31;;;12.73;66.15
10460;BME280;54412;51.206;6.888;2023-03-19T03:15:24;100428.03;;;12.57;66.95
10460;BME280;54412;51.206;6.888;2023-03-19T03:17:50;100426.81;;;12.63;66.72
10460;BME280;54412;51.206;6.888;2023-03-19T03:20:16;100434.84;;;12.61;66.50
10460;BME280;54412;51.206;6.888;2023-03-19T03:22:45;100432.22;;;12.47;67.29
10460;BME280;54412;51.206;6.888;2023-03-19T03:25:11;100440.16;;;12.61;66.81
10460;BME280;54412;51.206;6.888;2023-03-19T03:27:37;100439.03;;;12.66;67.04
10460;BME280;54412;51.206;6.888;2023-03-19T03:30:06;100433.16;;;12.75;66.34
10460;BME280;54412;51.206;6.888;2023-03-19T03:32:33;100442.88;;;12.60;66.65
10460;BME280;54412;51.206;6.888;2023-03-19T03:34:59;100442.88;;;12.88;65.64
10460;BME280;54412;51.206;6.888;2023-03-19T03:37:25;100446.09;;;12.79;65.61
10460;BME280;54412;51.206;6.888;2023-03-19T03:39:51;100447.81;;;12.66;66.52
10460;BME280;54412;51.206;6.888;2023-03-19T03:42:18;100448.47;;;12.84;65.72
10460;BME280;54412;51.206;6.888;2023-03-19T03:44:43;100450.94;;;12.58;66.74
10460;BME280;54412;51.206;6.888;2023-03-19T03:47:09;100453.66;;;12.85;65.87
10460;BME280;54412;51.206;6.888;2023-03-19T03:49:35;100462.38;;;12.73;66.09
10460;BME280;54412;51.206;6.888;2023-03-19T03:52:01;100463.03;;;12.77;66.23
10460;BME280;54412;51.206;6.888;2023-03-19T03:54:27;100455.66;;;12.82;66.04
10460;BME280;54412;51.206;6.888;2023-03-19T03:56:52;100455.38;;;12.86;65.84
10460;BME280;54412;51.206;6.888;2023-03-19T03:59:18;100464.16;;;12.58;67.10
10460;BME280;54412;51.206;6.888;2023-03-19T04:01:44;100466.25;;;12.68;66.97
10460;BME280;54412;51.206;6.888;2023-03-19T04:04:09;100461.91;;;12.81;66.62
10460;BME280;54412;51.206;6.888;2023-03-19T04:06:35;100467.09;;;12.82;66.19
10460;BME280;54412;51.206;6.888;2023-03-19T04:09:01;100469.34;;;12.74;66.67
10460;BME280;54412;51.206;6.888;2023-03-19T04:11:27;100464.72;;;12.78;66.70
10460;BME280;54412;51.206;6.888;2023-03-19T04:13:54;100468.59;;;12.72;67.38
10460;BME280;54412;51.206;6.888;2023-03-19T04:16:22;100471.66;;;13.08;65.53
10460;BME280;54412;51.206;6.888;2023-03-19T04:18:49;100468.97;;;12.94;66.61
10460;BME280;54412;51.206;6.888;2023-03-19T04:21:15;100472.66;;;12.92;66.35
10460;BME280;54412;51.206;6.888;2023-03-19T04:23:40;100466.91;;;13.13;65.59
10460;BME280;54412;51.206;6.888;2023-03-19T04:26:07;100472.03;;;13.16;65.08
10460;BME280;54412;51.206;6.888;2023-03-19T04:28:33;100473.13;;;13.26;64.98
10460;BME280;54412;51.206;6.888;2023-03-19T04:31:01;100471.00;;;13.05;65.56
10460;BME280;54412;51.206;6.888;2023-03-19T04:33:28;100473.38;;;13.09;65.41
10460;BME280;54412;51.206;6.888;2023-03-19T04:35:55;100472.69;;;13.20;65.22
10460;BME280;54412;51.206;6.888;2023-03-19T04:38:21;100477.69;;;12.96;65.87
10460;BME280;54412;51.206;6.888;2023-03-19T04:40:48;100475.50;;;12.89;66.10
10460;BME280;54412;51.206;6.888;2023-03-19T04:43:14;100469.66;;;13.12;65.64
10460;BME280;54412;51.206;6.888;2023-03-19T04:45:40;100478.81;;;12.92;66.22
10460;BME280;54412;51.206;6.888;2023-03-19T04:48:06;100488.81;;;13.29;65.12
10460;BME280;54412;51.206;6.888;2023-03-19T04:50:32;100478.47;;;13.12;65.49
10460;BME280;54412;51.206;6.888;2023-03-19T04:52:57;100476.84;;;13.10;65.91
10460;BME280;54412;51.206;6.888;2023-03-19T04:55:23;100481.31;;;13.09;65.65
10460;BME280;54412;51.206;6.888;2023-03-19T04:57:49;100490.28;;;13.07;65.66
10460;BME280;54412;51.206;6.888;2023-03-19T05:00:15;100496.78;;;13.01;65.68
10460;BME280;54412;51.206;6.888;2023-03-19T05:02:42;100491.13;;;12.93;66.20
10460;BME280;54412;51.206;6.888;2023-03-19T05:05:09;100497.06;;;12.97;66.31
10460;BME280;54412;51.206;6.888;2023-03-19T05:07:39;100497.75;;;12.86;66.35
10460;BME280;54412;51.206;6.888;2023-03-19T05:10:06;100499.09;;;13.07;65.73
10460;BME280;54412;51.206;6.888;2023-03-19T05:12:33;100491.81;;;13.11;65.68
10460;BME280;54412;51.206;6.888;2023-03-19T05:15:00;100488.75;;;13.17;65.36
10460;BME280;54412;51.206;6.888;2023-03-19T05:17:26;100495.47;;;13.08;65.87
10460;BME280;54412;51.206;6.888;2023-03-19T05:19:52;100506.50;;;13.01;66.21
10460;BME280;54412;51.206;6.888;2023-03-19T05:22:18;100503.53;;;13.07;65.86
10460;BME280;54412;51.206;6.888;2023-03-19T05:24:45;100504.94;;;13.12;65.48
10460;BME280;54412;51.206;6.888;2023-03-19T05:27:11;100507.28;;;13.03;65.83
10460;BME280;54412;51.206;6.888;2023-03-19T05:29:37;100509.34;;;12.98;66.13
10460;BME280;54412;51.206;6.888;2023-03-19T05:32:03;100510.91;;;13.16;65.48
10460;BME280;54412;51.206;6.888;2023-03-19T05:34:30;100510.50;;;13.08;65.44
10460;BME280;54412;51.206;6.888;2023-03-19T05:36:56;100506.91;;;13.23;65.00
10460;BME280;54412;51.206;6.888;2023-03-19T05:39:22;100508.91;;;13.05;65.62
10460;BME280;54412;51.206;6.888;2023-03-19T05:41:48;100503.16;;;13.13;65.53
10460;BME280;54412;51.206;6.888;2023-03-19T05:44:14;100510.59;;;13.06;66.16
10460;BME280;54412;51.206;6.888;2023-03-19T05:46:39;100503.63;;;13.05;66.12
10460;BME280;54412;51.206;6.888;2023-03-19T05:49:06;100508.69;;;12.94;66.20
10460;BME280;54412;51.206;6.888;2023-03-19T05:51:32;100519.94;;;12.98;66.31
10460;BME280;54412;51.206;6.888;2023-03-19T05:53:57;100518.91;;;13.28;65.18
10460;BME280;54412;51.206;6.888;2023-03-19T05:56:23;100529.66;;;12.97;66.44
10460;BME280;54412;51.206;6.888;2023-03-19T05:58:49;100520.81;;;12.98;66.02
10460;BME280;54412;51.206;6.888;2023-03-19T06:01:14;100524.38;;;12.97;66.56
10460;BME280;54412;51.206;6.888;2023-03-19T06:03:40;100532.84;;;13.04;66.16
10460;BME280;54412;51.206;6.888;2023-03-19T06:06:06;100537.56;;;13.13;65.65
10460;BME280;54412;51.206;6.888;2023-03-19T06:08:32;100538.03;;;13.33;64.83
10460;BME280;54412;51.206;6.888;2023-03-19T06:10:58;100544.66;;;13.12;65.52
10460;BME280;54412;51.206;6.888;2023-03-19T06:13:24;100543.69;;;13.13;65.30
10460;BME280;54412;51.206;6.888;2023-03-19T06:15:50;100545.41;;;13.28;65.36
10460;BME280;54412;51.206;6.888;2023-03-19T06:18:17;100545.78;;;13.08;65.87
10460;BME280;54412;51.206;6.888;2023-03-19T06:20:43;100545.13;;;13.19;65.47
10460;BME280;54412;51.206;6.888;2023-03-19T06:23:09;100543.25;;;13.07;65.95
10460;BME280;54412;51.206;6.888;2023-03-19T06:25:35;100550.59;;;13.02;66.44
10460;BME280;54412;51.206;6.888;2023-03-19T06:28:01;100547.50;;;13.09;66.04
10460;BME280;54412;51.206;6.888;2023-03-19T06:30:26;100557.25;;;13.09;65.94
10460;BME280;54412;51.206;6.888;2023-03-19T06:32:52;100560.66;;;13.11;65.86
10460;BME280;54412;51.206;6.888;2023-03-19T06:35:18;100557.44;;;13.06;65.67
10460;BME280;54412;51.206;6.888;2023-03-19T06:37:43;100556.69;;;13.04;65.96
10460;BME280;54412;51.206;6.888;2023-03-19T06:40:10;100566.25;;;13.20;65.49
10460;BME280;54412;51.206;6.888;2023-03-19T06:42:35;100571.00;;;13.00;66.33
10460;BME280;54412;51.206;6.888;2023-03-19T06:45:02;100567.06;;;13.35;64.77
10460;BME280;54412;51.206;6.888;2023-03-19T06:47:28;100566.59;;;13.14;65.54
10460;BME280;54412;51.206;6.888;2023-03-19T06:49:54;100568.59;;;13.25;65.42
10460;BME280;54412;51.206;6.888;2023-03-19T06:52:20;100570.09;;;13.29;65.36
10460;BME280;54412;51.206;6.888;2023-03-19T06:54:46;100569.63;;;13.08;66.18
10460;BME280;54412;51.206;6.888;2023-03-19T06:57:12;100569.31;;;12.99;66.41
10460;BME280;54412;51.206;6.888;2023-03-19T06:59:38;100566.25;;;13.20;65.51
10460;BME280;54412;51.206;6.888;2023-03-19T07:02:03;100571.13;;;13.12;65.89
10460;BME280;54412;51.206;6.888;2023-03-19T07:04:30;100565.19;;;13.23;65.71
10460;BME280;54412;51.206;6.888;2023-03-19T07:06:55;100581.84;;;13.11;65.88
10460;BME280;54412;51.206;6.888;2023-03-19T07:09:21;100566.91;;;13.24;65.31
10460;BME280;54412;51.206;6.888;2023-03-19T07:11:47;100575.75;;;13.37;65.18
10460;BME280;54412;51.206;6.888;2023-03-19T07:14:13;100580.31;;;13.49;64.70
10460;BME280;54412;51.206;6.888;2023-03-19T07:16:39;100576.72;;;13.22;65.70
10460;BME280;54412;51.206;6.888;2023-03-19T07:19:04;100577.56;;;13.22;65.78
10460;BME280;54412;51.206;6.888;2023-03-19T07:21:30;100571.63;;;13.33;65.54
10460;BME280;54412;51.206;6.888;2023-03-19T07:23:56;100573.28;;;13.62;65.18
10460;BME280;54412;51.206;6.888;2023-03-19T07:26:21;100585.59;;;13.63;64.63
10460;BME280;54412;51.206;6.888;2023-03-19T07:28:47;100583.19;;;13.73;64.81
10460;BME280;54412;51.206;6.888;2023-03-19T07:31:13;100592.66;;;13.77;64.10
10460;BME280;54412;51.206;6.888;2023-03-19T07:33:39;100605.38;;;13.72;64.17
10460;BME280;54412;51.206;6.888;2023-03-19T07:36:05;100606.31;;;13.71;63.99
10460;BME280;54412;51.206;6.888;2023-03-19T07:38:31;100608.03;;;13.57;64.18
10460;BME280;54412;51.206;6.888;2023-03-19T07:40:57;100610.50;;;13.46;64.57
10460;BME280;54412;51.206;6.888;2023-03-19T07:43:22;100613.03;;;13.62;64.40
10460;BME280;54412;51.206;6.888;2023-03-19T07:45:48;100614.78;;;13.49;64.71
10460;BME280;54412;51.206;6.888;2023-03-19T07:48:14;100612.19;;;13.47;64.74
10460;BME280;54412;51.206;6.888;2023-03-19T07:50:39;100611.81;;;13.53;64.69
10460;BME280;54412;51.206;6.888;2023-03-19T07:53:05;100612.94;;;13.63;64.52
10460;BME280;54412;51.206;6.888;2023-03-19T07:55:32;100612.94;;;13.63;64.54
10460;BME280;54412;51.206;6.888;2023-03-19T07:57:57;100620.72;;;13.67;64.32
10460;BME280;54412;51.206;6.888;2023-03-19T08:00:23;100620.88;;;13.63;64.65
10460;BME280;54412;51.206;6.888;2023-03-19T08:02:49;100618.34;;;13.62;64.91
10460;BME280;54412;51.206;6.888;2023-03-19T08:05:14;100622.66;;;13.91;63.74
10460;BME280;54412;51.206;6.888;2023-03-19T08:07:41;100613.38;;;13.84;63.77
10460;BME280;54412;51.206;6.888;2023-03-19T08:10:07;100620.13;;;13.76;64.20
10460;BME280;54412;51.206;6.888;2023-03-19T08:12:33;100625.22;;;13.79;63.95
10460;BME280;54412;51.206;6.888;2023-03-19T08:15:07;100623.34;;;13.81;63.90
10460;BME280;54412;51.206;6.888;2023-03-19T08:17:34;100629.34;;;13.56;64.88
10460;BME280;54412;51.206;6.888;2023-03-19T08:20:08;100633.72;;;13.84;64.02
10460;BME280;54412;51.206;6.888;2023-03-19T08:22:36;100626.44;;;14.01;63.52
10460;BME280;54412;51.206;6.888;2023-03-19T08:25:04;100630.44;;;13.80;63.88
10460;BME280;54412;51.206;6.888;2023-03-19T08:27:30;100627.59;;;13.83;64.05
10460;BME280;54412;51.206;6.888;2023-03-19T08:29:57;100626.53;;;13.86;64.04
10460;BME280;54412;51.206;6.888;2023-03-19T08:32:23;100623.97;;;13.98;63.95
10460;BME280;54412;51.206;6.888;2023-03-19T08:34:49;100631.25;;;13.95;63.78
10460;BME280;54412;51.206;6.888;2023-03-19T08:37:15;100630.78;;;14.02;63.66
10460;BME280;54412;51.206;6.888;2023-03-19T08:39:41;100641.06;;;14.07;63.48
10460;BME280;54412;51.206;6.888;2023-03-19T08:42:07;100648.19;;;14.06;63.33
10460;BME280;54412;51.206;6.888;2023-03-19T08:44:32;100645.72;;;14.03;63.52
10460;BME280;54412;51.206;6.888;2023-03-19T08:46:58;100646.63;;;14.30;63.03
10460;BME280;54412;51.206;6.888;2023-03-19T08:49:24;100645.19;;;14.25;63.39
10460;BME280;54412;51.206;6.888;2023-03-19T08:51:50;100643.81;;;14.33;63.33
10460;BME280;54412;51.206;6.888;2023-03-19T08:54:15;100629.78;;;14.58;62.53
10460;BME280;54412;51.206;6.888;2023-03-19T08:56:42;100635.63;;;14.63;62.18
10460;BME280;54412;51.206;6.888;2023-03-19T08:59:07;100641.56;;;14.66;62.00
10460;BME280;54412;51.206;6.888;2023-03-19T09:01:33;100637.41;;;14.62;62.78
10460;BME280;54412;51.206;6.888;2023-03-19T09:03:59;100635.63;;;14.63;62.54
10460;BME280;54412;51.206;6.888;2023-03-19T09:06:24;100642.59;;;14.91;61.95
10460;BME280;54412;51.206;6.888;2023-03-19T09:08:50;100638.63;;;14.71;62.57
10460;BME280;54412;51.206;6.888;2023-03-19T09:11:16;100643.72;;;14.74;62.62
10460;BME280;54412;51.206;6.888;2023-03-19T09:13:42;100635.53;;;14.77;62.86
10460;BME280;54412;51.206;6.888;2023-03-19T09:16:08;100640.03;;;14.77;62.28
10460;BME280;54412;51.206;6.888;2023-03-19T09:18:34;100641.28;;;14.71;62.83
10460;BME280;54412;51.206;6.888;2023-03-19T09:21:01;100637.72;;;14.58;63.56
10460;BME280;54412;51.206;6.888;2023-03-19T09:23:27;100648.38;;;14.71;63.03
10460;BME280;54412;51.206;6.888;2023-03-19T09:25:53;100643.06;;;14.71;63.34
10460;BME280;54412;51.206;6.888;2023-03-19T09:28:19;100651.66;;;14.61;63.52
10460;BME280;54412;51.206;6.888;2023-03-19T09:30:46;100643.03;;;14.58;63.41
10460;BME280;54412;51.206;6.888;2023-03-19T09:33:13;100650.72;;;14.75;63.37
10460;BME280;54412;51.206;6.888;2023-03-19T09:35:40;100656.41;;;14.96;62.76
10460;BME280;54412;51.206;6.888;2023-03-19T09:38:06;100660.84;;;14.95;62.71
10460;BME280;54412;51.206;6.888;2023-03-19T09:40:43;100662.13;;;14.90;62.39
10460;BME280;54412;51.206;6.888;2023-03-19T09:43:40;100664.75;;;14.77;62.29
10460;BME280;54412;51.206;6.888;2023-03-19T09:46:18;100665.06;;;14.73;62.82
10460;BME280;54412;51.206;6.888;2023-03-19T09:48:55;100665.97;;;14.86;62.80
10460;BME280;54412;51.206;6.888;2023-03-19T09:52:14;100659.78;;;14.85;62.72
10460;BME280;54412;51.206;6.888;2023-03-19T09:54:50;100671.19;;;15.00;62.53
10460;BME280;54412;51.206;6.888;2023-03-19T09:57:19;100666.41;;;15.05;62.30
10460;BME280;54412;51.206;6.888;2023-03-19T09:59:46;100664.28;;;15.10;61.86
10460;BME280;54412;51.206;6.888;2023-03-19T10:02:31;100663.91;;;14.77;62.74
10460;BME280;54412;51.206;6.888;2023-03-19T10:05:42;100666.00;;;14.72;63.01
10460;BME280;54412;51.206;6.888;2023-03-19T10:08:31;100663.59;;;14.81;63.24
10460;BME280;54412;51.206;6.888;2023-03-19T10:17:05;100664.69;;;14.91;63.26
10460;BME280;54412;51.206;6.888;2023-03-19T10:20:09;100670.31;;;14.99;62.68
10460;BME280;54412;51.206;6.888;2023-03-19T10:22:50;100663.97;;;15.02;62.32
10460;BME280;54412;51.206;6.888;2023-03-19T10:25:26;100670.69;;;14.81;63.15
10460;BME280;54412;51.206;6.888;2023-03-19T10:28:00;100666.56;;;14.77;63.02
10460;BME280;54412;51.206;6.888;2023-03-19T10:30:32;100671.66;;;14.80;63.40
10460;BME280;54412;51.206;6.888;2023-03-19T10:33:21;100678.28;;;14.87;63.15
10460;BME280;54412;51.206;6.888;2023-03-19T10:35:58;100678.28;;;14.87;62.87
10460;BME280;54412;51.206;6.888;2023-03-19T10:38:27;100678.06;;;14.90;63.33
10460;BME280;54412;51.206;6.888;2023-03-19T10:43:58;100682.69;;;15.00;62.36
10460;BME280;54412;51.206;6.888;2023-03-19T10:46:25;100675.00;;;14.96;62.41
10460;BME280;54412;51.206;6.888;2023-03-19T10:48:50;100685.09;;;14.91;62.64
10460;BME280;54412;51.206;6.888;2023-03-19T10:51:23;100680.63;;;14.91;62.87
10460;BME280;54412;51.206;6.888;2023-03-19T10:53:53;100678.06;;;14.90;63.02
10460;BME280;54412;51.206;6.888;2023-03-19T10:56:25;100683.38;;;14.90;62.54
10460;BME280;54412;51.206;6.888;2023-03-19T10:59:05;100675.22;;;14.93;62.67
10460;BME280;54412;51.206;6.888;2023-03-19T11:01:35;100684.22;;;14.90;62.21
10460;BME280;54412;51.206;6.888;2023-03-19T11:04:18;100694.75;;;14.92;62.43
10460;BME280;54412;51.206;6.888;2023-03-19T11:06:49;100698.03;;;14.95;62.74
10460;BME280;54412;51.206;6.888;2023-03-19T11:09:37;100689.09;;;14.84;63.70
10460;BME280;54412;51.206;6.888;2023-03-19T11:12:07;100703.69;;;14.91;64.71
10460;BME280;54412;51.206;6.888;2023-03-19T11:14:42;100694.84;;;14.90;64.81
10460;BME280;54412;51.206;6.888;2023-03-19T11:19:54;100691.63;;;14.73;66.65
10460;BME280;54412;51.206;6.888;2023-03-19T11:22:26;100695.53;;;14.67;66.97
10460;BME280;54412;51.206;6.888;2023-03-19T11:24:56;100693.19;;;14.75;67.03
10460;BME280;54412;51.206;6.888;2023-03-19T11:27:33;100692.75;;;14.68;67.37
10460;BME280;54412;51.206;6.888;2023-03-19T11:30:12;100689.53;;;14.90;66.56
10460;BME280;54412;51.206;6.888;2023-03-19T11:33:14;100696.53;;;14.79;66.89
10460;BME280;54412;51.206;6.888;2023-03-19T11:36:03;100692.16;;;14.51;67.96
10460;BME280;54412;51.206;6.888;2023-03-19T11:39:01;100705.53;;;14.49;68.41
10460;BME280;54412;51.206;6.888;2023-03-19T11:41:57;100695.69;;;14.37;70.05
10460;BME280;54412;51.206;6.888;2023-03-19T11:45:12;100694.13;;;14.21;73.01
10460;BME280;54412;51.206;6.888;2023-03-19T11:50:43;100693.06;;;14.23;76.91
10460;BME280;54412;51.206;6.888;2023-03-19T11:53:31;100680.75;;;14.22;76.52
10460;BME280;54412;51.206;6.888;2023-03-19T12:05:31;100701.03;;;14.09;81.62
10460;BME280;54412;51.206;6.888;2023-03-19T12:08:37;100697.84;;;14.04;83.43
10460;BME280;54412;51.206;6.888;2023-03-19T12:17:21;100706.72;;;14.03;81.85
10460;BME280;54412;51.206;6.888;2023-03-19T12:20:04;100707.03;;;13.99;82.52
10460;BME280;54412;51.206;6.888;2023-03-19T12:23:45;100691.56;;;14.05;84.44
10460;BME280;54412;51.206;6.888;2023-03-19T12:26:16;100698.31;;;13.83;87.08
10460;BME280;54412;51.206;6.888;2023-03-19T12:31:35;100704.38;;;13.99;86.72
10460;BME280;54412;51.206;6.888;2023-03-19T12:34:27;100704.94;;;14.04;86.22
10460;BME280;54412;51.206;6.888;2023-03-19T12:40:16;100700.09;;;14.24;86.05
10460;BME280;54412;51.206;6.888;2023-03-19T12:42:48;100697.53;;;14.37;83.74
10460;BME280;54412;51.206;6.888;2023-03-19T12:45:33;100706.91;;;14.28;84.48
10460;BME280;54412;51.206;6.888;2023-03-19T12:48:31;100701.38;;;14.45;84.57
10460;BME280;54412;51.206;6.888;2023-03-19T12:51:08;100702.13;;;15.26;85.07
10460;BME280;54412;51.206;6.888;2023-03-19T12:54:12;100698.09;;;16.81;79.15
10460;BME280;54412;51.206;6.888;2023-03-19T12:56:57;100704.44;;;16.31;76.65
10460;BME280;54412;51.206;6.888;2023-03-19T12:59:52;100701.44;;;15.74;78.89
10460;BME280;54412;51.206;6.888;2023-03-19T13:03:12;100701.66;;;15.46;77.94
10460;BME280;54412;51.206;6.888;2023-03-19T13:08:46;100711.13;;;14.98;76.42
10460;BME280;54412;51.206;6.888;2023-03-19T13:11:34;100710.28;;;14.98;75.01
10460;BME280;54412;51.206;6.888;2023-03-19T13:14:37;100713.94;;;14.83;75.69
10460;BME280;54412;51.206;6.888;2023-03-19T13:20:16;100703.06;;;14.60;77.12
10460;BME280;54412;51.206;6.888;2023-03-19T13:22:53;100697.03;;;14.44;78.66
10460;BME280;54412;51.206;6.888;2023-03-19T13:25:28;100694.47;;;14.70;78.51
10460;BME280;54412;51.206;6.888;2023-03-19T13:27:56;100688.88;;;14.47;80.12
10460;BME280;54412;51.206;6.888;2023-03-19T13:30:23;100698.88;;;14.56;78.95
10460;BME280;54412;51.206;6.888;2023-03-19T13:33:04;100703.97;;;14.59;77.49
10460;BME280;54412;51.206;6.888;2023-03-19T13:38:23;100697.81;;;14.18;79.84
10460;BME280;54412;51.206;6.888;2023-03-19T13:40:56;100695.16;;;14.18;81.51
10460;BME280;54412;51.206;6.888;2023-03-19T13:43:40;100695.25;;;14.17;81.76
10460;BME280;54412;51.206;6.888;2023-03-19T13:56:16;100693.63;;;14.14;83.33
10460;BME280;54412;51.206;6.888;2023-03-19T13:58:50;100686.72;;;14.26;82.21
10460;BME280;54412;51.206;6.888;2023-03-19T14:03:57;100680.19;;;14.58;79.62